createdAt,value
2022-12-31T00:00:27.202Z,55.30
2022-12-31T00:05:50.578Z,55.60
2022-12-31T00:10:53.691Z,57.00
2022-12-31T00:16:12.195Z,55.60
2022-12-31T00:21:17.116Z,51.60
2022-12-31T00:26:24.910Z,59.90
2022-12-31T00:31:30.622Z,55.20
2022-12-31T00:36:39.255Z,60.40
2022-12-31T00:41:44.262Z,52.70
2022-12-31T00:46:48.499Z,53.20
2022-12-31T00:51:51.600Z,46.60
2022-12-31T00:56:54.678Z,51.90
2022-12-31T01:01:57.829Z,50.20
2022-12-31T01:07:00.989Z,51.20
2022-12-31T01:12:04.398Z,46.50
2022-12-31T01:17:08.171Z,42.50
2022-12-31T01:22:11.297Z,43.90
2022-12-31T01:27:14.616Z,51.70
2022-12-31T01:32:18.244Z,46.60
2022-12-31T01:37:21.379Z,44.50
2022-12-31T01:42:24.464Z,43.50
2022-12-31T01:47:42.605Z,45.90
2022-12-31T01:52:50.080Z,43.40
2022-12-31T01:57:58.556Z,44.00
2022-12-31T02:03:02.686Z,43.90
2022-12-31T02:08:06.928Z,46.30
2022-12-31T02:13:10.329Z,40.20
2022-12-31T02:18:46.038Z,41.80
2022-12-31T02:24:10.156Z,37.00
2022-12-31T02:29:48.725Z,38.60
2022-12-31T02:34:59.082Z,36.50
2022-12-31T02:40:04.108Z,38.00
2022-12-31T02:45:08.245Z,37.30
2022-12-31T02:50:31.878Z,34.20
2022-12-31T02:55:58.081Z,35.80
2022-12-31T03:01:19.989Z,34.90
2022-12-31T03:06:23.292Z,31.80
2022-12-31T03:11:45.037Z,33.40
2022-12-31T03:16:49.233Z,29.50
2022-12-31T03:22:10.788Z,29.90
2022-12-31T03:27:13.925Z,29.60
2022-12-31T03:32:17.059Z,28.70
2022-12-31T03:37:20.255Z,26.80
2022-12-31T03:42:23.426Z,28.50
2022-12-31T03:47:26.645Z,31.20
2022-12-31T03:52:29.771Z,25.50
2022-12-31T03:57:33.663Z,24.40
2022-12-31T04:02:37.288Z,23.30
2022-12-31T04:07:41.766Z,20.90
2022-12-31T04:12:45.412Z,25.40
2022-12-31T04:17:49.241Z,22.90
2022-12-31T04:22:52.399Z,27.50
2022-12-31T04:27:55.487Z,29.00
2022-12-31T04:32:58.602Z,28.20
2022-12-31T04:38:01.731Z,28.00
2022-12-31T04:43:04.795Z,27.20
2022-12-31T04:48:07.863Z,24.60
2022-12-31T04:53:10.942Z,24.70
2022-12-31T04:58:14.046Z,24.00
2022-12-31T05:03:18.562Z,28.10
2022-12-31T05:08:21.967Z,25.80
2022-12-31T05:13:29.499Z,27.00
2022-12-31T05:18:37.023Z,25.60
2022-12-31T05:23:40.196Z,24.90
2022-12-31T05:28:43.359Z,28.40
2022-12-31T05:33:46.513Z,27.80
2022-12-31T05:38:49.602Z,25.90
2022-12-31T05:43:52.671Z,27.00
2022-12-31T05:48:55.780Z,27.00
2022-12-31T05:53:58.986Z,28.00
2022-12-31T05:59:02.129Z,29.30
2022-12-31T06:04:06.185Z,24.00
2022-12-31T06:09:09.505Z,24.90
2022-12-31T06:14:13.014Z,25.20
2022-12-31T06:19:16.186Z,24.70
2022-12-31T06:24:19.379Z,27.60
2022-12-31T06:29:22.474Z,25.30
2022-12-31T06:34:25.648Z,24.50
2022-12-31T06:39:28.912Z,21.70
2022-12-31T06:44:32.039Z,22.40
2022-12-31T06:49:35.157Z,21.90
2022-12-31T06:54:38.747Z,20.60
2022-12-31T06:59:42.269Z,18.80
2022-12-31T07:05:10.449Z,17.90
2022-12-31T07:10:30.091Z,19.60
2022-12-31T07:15:59.110Z,19.30
2022-12-31T07:21:02.847Z,19.00
2022-12-31T07:26:35.735Z,21.30
2022-12-31T07:32:08.065Z,19.00
2022-12-31T07:37:36.437Z,19.00
2022-12-31T07:42:57.137Z,16.40
2022-12-31T07:48:02.838Z,18.80
2022-12-31T07:53:06.492Z,16.70
2022-12-31T07:58:22.416Z,16.00
2022-12-31T08:03:40.796Z,15.60
2022-12-31T08:08:49.873Z,15.10
2022-12-31T08:13:56.410Z,18.00
2022-12-31T08:18:59.785Z,16.60
2022-12-31T08:24:21.962Z,14.40
2022-12-31T08:29:53.189Z,15.60
2022-12-31T08:35:15.503Z,15.90
2022-12-31T08:40:50.436Z,14.60
2022-12-31T08:45:58.073Z,13.40
2022-12-31T08:51:01.492Z,15.70
2022-12-31T08:56:15.483Z,13.00
2022-12-31T09:01:24.791Z,11.50
2022-12-31T09:06:38.234Z,11.80
2022-12-31T09:12:06.266Z,12.60
2022-12-31T09:17:33.896Z,11.40
2022-12-31T09:22:38.728Z,10.20
2022-12-31T09:28:11.666Z,10.70
2022-12-31T09:33:36.726Z,11.40
2022-12-31T09:38:39.785Z,12.10
2022-12-31T09:43:48.843Z,11.80
2022-12-31T09:49:01.231Z,10.00
2022-12-31T09:54:04.323Z,9.70
2022-12-31T09:59:17.980Z,12.20
2022-12-31T10:04:48.303Z,10.70
2022-12-31T10:10:12.996Z,9.10
2022-12-31T10:15:49.796Z,11.30
2022-12-31T10:21:11.723Z,10.00
2022-12-31T10:26:33.652Z,9.80
2022-12-31T10:32:31.682Z,10.80
2022-12-31T10:37:56.673Z,9.10
2022-12-31T10:43:34.178Z,11.70
2022-12-31T10:48:54.979Z,7.60
2022-12-31T10:54:07.332Z,7.60
2022-12-31T11:05:49.090Z,8.90
2022-12-31T11:11:23.823Z,8.50
2022-12-31T11:17:03.580Z,8.00
2022-12-31T11:22:33.723Z,8.70
2022-12-31T11:27:49.620Z,10.40
2022-12-31T11:33:20.585Z,9.80
2022-12-31T11:38:23.687Z,8.00
2022-12-31T11:43:54.707Z,8.20
2022-12-31T11:49:00.607Z,7.90
2022-12-31T11:54:26.020Z,6.90
2022-12-31T11:59:38.411Z,7.30
2022-12-31T12:04:41.824Z,6.60
2022-12-31T12:09:49.221Z,6.70
2022-12-31T12:14:55.035Z,6.80
2022-12-31T12:20:15.286Z,7.10
2022-12-31T12:25:22.504Z,10.50
2022-12-31T12:30:28.230Z,8.90
2022-12-31T12:35:34.175Z,7.20
2022-12-31T12:40:59.041Z,9.20
2022-12-31T12:46:42.593Z,7.40
2022-12-31T12:52:16.987Z,7.30
2022-12-31T12:57:47.666Z,6.60
2022-12-31T13:03:02.178Z,8.30
2022-12-31T13:08:15.127Z,8.30
2022-12-31T13:13:47.692Z,7.50
2022-12-31T13:19:04.734Z,9.10
2022-12-31T13:24:32.837Z,7.90
2022-12-31T13:29:49.120Z,9.00
2022-12-31T13:35:10.893Z,8.50
2022-12-31T13:41:23.993Z,8.30
2022-12-31T13:47:04.807Z,9.00
2022-12-31T13:52:35.330Z,8.80
2022-12-31T13:58:11.639Z,7.90
2022-12-31T14:03:31.654Z,7.30
2022-12-31T14:09:02.431Z,8.40
2022-12-31T14:14:42.419Z,7.60
2022-12-31T14:20:06.369Z,8.90
2022-12-31T14:26:01.757Z,7.30
2022-12-31T14:31:20.159Z,8.80
2022-12-31T14:37:04.557Z,8.20
2022-12-31T14:42:34.938Z,7.10
2022-12-31T14:47:55.734Z,6.80
2022-12-31T14:53:33.671Z,7.50
2022-12-31T14:58:39.652Z,8.70
2022-12-31T15:03:45.994Z,8.10
2022-12-31T15:09:08.800Z,7.50
2022-12-31T15:14:36.899Z,8.80
2022-12-31T15:19:50.043Z,8.40
2022-12-31T15:32:26.142Z,9.30
2022-12-31T15:38:18.817Z,7.60
2022-12-31T15:43:25.228Z,7.70
2022-12-31T15:48:52.094Z,12.50
2022-12-31T15:53:58.320Z,7.10
2022-12-31T15:59:06.689Z,8.30
2022-12-31T16:04:42.826Z,8.00
2022-12-31T16:09:59.172Z,6.90
2022-12-31T16:15:03.355Z,8.30
2022-12-31T16:20:30.426Z,7.00
2022-12-31T16:25:34.119Z,7.40
2022-12-31T16:30:37.561Z,6.60
2022-12-31T16:35:41.096Z,7.40
2022-12-31T16:41:04.204Z,7.20
2022-12-31T16:51:21.346Z,7.00
2022-12-31T16:56:36.699Z,7.30
2022-12-31T17:01:40.042Z,7.10
2022-12-31T17:06:44.248Z,6.70
2022-12-31T17:11:56.476Z,6.10
2022-12-31T17:17:08.814Z,6.80
2022-12-31T17:22:34.236Z,9.50
2022-12-31T17:27:39.838Z,8.20
2022-12-31T17:32:45.534Z,7.20
2022-12-31T17:37:48.713Z,7.40
2022-12-31T17:42:52.063Z,6.60
2022-12-31T17:47:59.936Z,7.60
2022-12-31T17:53:11.225Z,7.90
2022-12-31T17:58:23.556Z,6.90
2022-12-31T18:03:30.972Z,7.00
2022-12-31T18:08:34.183Z,8.20
2022-12-31T18:13:37.399Z,7.70
2022-12-31T18:18:42.147Z,8.40
2022-12-31T18:23:47.992Z,6.70
2022-12-31T18:28:51.598Z,6.80
2022-12-31T18:33:57.112Z,6.80
2022-12-31T18:39:00.393Z,6.70
2022-12-31T18:44:03.743Z,6.60
2022-12-31T18:49:06.872Z,6.80
2022-12-31T18:54:12.330Z,6.60
2022-12-31T18:59:15.556Z,7.30
2022-12-31T19:04:27.092Z,6.90
2022-12-31T19:09:45.199Z,7.70
2022-12-31T19:14:49.470Z,7.60
2022-12-31T19:19:52.561Z,7.70
2022-12-31T19:24:55.692Z,7.40
2022-12-31T19:30:00.759Z,7.40
2022-12-31T19:35:04.290Z,6.40
2022-12-31T19:40:13.061Z,7.00
2022-12-31T19:45:21.595Z,7.30
2022-12-31T19:50:27.479Z,8.60
2022-12-31T19:55:33.066Z,7.80
2022-12-31T20:00:36.304Z,8.10
2022-12-31T20:05:39.529Z,7.90
2022-12-31T20:10:43.875Z,8.90
2022-12-31T20:15:48.006Z,11.10
2022-12-31T20:20:55.804Z,9.70
2022-12-31T20:26:00.488Z,7.70
2022-12-31T20:31:12.440Z,8.30
2022-12-31T20:36:17.759Z,11.50
2022-12-31T20:41:23.320Z,9.30
2022-12-31T20:46:29.890Z,8.00
2022-12-31T20:51:35.093Z,8.10
2022-12-31T20:56:41.319Z,8.40
2022-12-31T21:02:19.284Z,9.00
2022-12-31T21:07:07.962Z,8.50
2022-12-31T21:12:30.449Z,8.30
2022-12-31T21:17:33.617Z,9.30
2022-12-31T21:22:36.815Z,8.50
2022-12-31T21:27:40.037Z,9.90
2022-12-31T21:32:43.193Z,8.20
2022-12-31T21:37:58.424Z,9.10
2022-12-31T21:43:03.931Z,7.30
2022-12-31T21:48:20.546Z,7.60
2022-12-31T21:53:29.207Z,9.10
2022-12-31T21:58:36.758Z,8.40
2022-12-31T22:03:39.988Z,8.10
2022-12-31T22:08:44.864Z,8.20
2022-12-31T22:13:49.918Z,7.70
2022-12-31T22:18:55.762Z,8.30
2022-12-31T22:23:59.108Z,7.90
2022-12-31T22:29:02.271Z,8.20
2022-12-31T22:34:05.469Z,6.60
2022-12-31T22:39:44.732Z,6.10
2022-12-31T22:44:38.597Z,8.20
2022-12-31T22:49:41.727Z,6.30
2022-12-31T22:54:44.809Z,8.10
2022-12-31T22:59:47.978Z,7.00
2022-12-31T23:04:51.131Z,10.60
2022-12-31T23:10:12.884Z,9.60
2022-12-31T23:15:34.704Z,14.00
2022-12-31T23:20:57.173Z,11.50
2022-12-31T23:26:02.167Z,11.00
2022-12-31T23:31:06.840Z,12.40
2022-12-31T23:36:10.222Z,10.20
2022-12-31T23:41:15.754Z,9.00
2022-12-31T23:46:19.000Z,10.50
2022-12-31T23:51:22.384Z,9.50
2022-12-31T23:56:25.485Z,9.60
